Time;durP1;ratioP1;P1;durP2;ratioP2;P2;SDS_P1;SDS_P2;PMS_P1;PMS_P2;Temp;Humidity;BMP_temperature;BMP_pressure;BME280_temperature;BME280_humidity;BME280_pressure;Samples;Min_cycle;Max_cycle;Signal;HPM_P1;HPM_P2
2022/03/03 00:01:31;;;;;;;;;68.00;55.50;;;;;12.62;49.28;101358.03;4942964;28;45448;-70
2022/03/03 00:03:57;;;;;;;;;67.75;56.00;;;;;12.57;49.41;101351.00;4943805;28;45468;-70
2022/03/03 00:06:22;;;;;;;;;68.25;54.50;;;;;12.59;49.47;101353.63;4938347;28;47086;-70
2022/03/03 00:08:47;;;;;;;;;67.75;54.00;;;;;12.55;49.48;101344.81;4940906;28;45312;-70
2022/03/03 00:11:13;;;;;;;;;73.00;57.00;;;;;12.48;49.27;101334.31;4941095;28;45430;-70
2022/03/03 00:13:38;;;;;;;;;69.75;55.00;;;;;12.51;49.75;101347.63;4940847;28;45397;-70
2022/03/03 00:16:04;;;;;;;;;72.25;57.00;;;;;12.39;49.87;101324.78;4940315;28;45586;-70
2022/03/03 00:18:29;;;;;;;;;69.25;55.00;;;;;12.43;49.91;101334.50;4932963;28;45323;-70
2022/03/03 00:20:54;;;;;;;;;71.25;56.00;;;;;12.45;49.78;101338.00;4937022;28;45699;-70
2022/03/03 00:23:20;;;;;;;;;72.00;55.75;;;;;12.45;49.88;101337.13;4929333;28;45333;-70
2022/03/03 00:25:45;;;;;;;;;66.50;53.50;;;;;12.43;49.81;101334.50;4939727;28;46003;-70
2022/03/03 00:28:10;;;;;;;;;68.25;52.50;;;;;12.41;49.99;101334.53;4940962;28;45349;-70
2022/03/03 00:30:36;;;;;;;;;73.25;57.50;;;;;12.35;49.99;101332.03;4940383;28;45312;-70
2022/03/03 00:33:01;;;;;;;;;69.00;54.25;;;;;12.38;49.98;101336.44;4940925;28;45238;-70
2022/03/03 00:35:26;;;;;;;;;69.75;55.00;;;;;12.39;49.88;101335.50;4943907;28;45417;-70
2022/03/03 00:37:52;;;;;;;;;70.00;56.25;;;;;12.37;50.04;101332.84;4944408;28;45203;-70
2022/03/03 00:40:17;;;;;;;;;67.50;54.50;;;;;12.40;49.89;101337.25;4946782;28;45131;-70
2022/03/03 00:42:42;;;;;;;;;71.00;56.00;;;;;12.36;49.90;101335.56;4947940;28;45326;-70
2022/03/03 00:45:09;;;;;;;;;72.50;56.00;;;;;12.38;49.95;101339.13;4943240;28;45368;-70
2022/03/03 00:47:34;;;;;;;;;66.50;52.25;;;;;12.40;50.02;101345.28;4931973;28;45384;-70
2022/03/03 00:49:59;;;;;;;;;71.75;56.00;;;;;12.39;50.36;101347.06;4924758;28;45457;-70
2022/03/03 00:52:25;;;;;;;;;66.25;53.00;;;;;12.34;50.17;101340.09;4924916;28;45325;-70
2022/03/03 00:54:50;;;;;;;;;73.00;55.00;;;;;12.37;50.18;101343.56;4924351;28;45582;-70
2022/03/03 00:57:15;;;;;;;;;66.25;53.75;;;;;12.39;50.13;101346.19;4924876;28;45351;-70
2022/03/03 00:59:40;;;;;;;;;72.25;57.25;;;;;12.39;49.98;101346.19;4942823;28;45416;-70
2022/03/03 01:02:06;;;;;;;;;74.00;56.75;;;;;12.37;50.17;101342.69;4943450;28;45411;-70
2022/03/03 01:04:32;;;;;;;;;75.00;60.00;;;;;12.39;50.14;101344.38;4943159;28;45434;-70
2022/03/03 01:06:57;;;;;;;;;69.00;56.00;;;;;12.36;50.34;101346.28;4944469;28;45238;-70
2022/03/03 01:09:22;;;;;;;;;71.25;55.50;;;;;12.26;50.54;101331.44;4943179;28;45357;-70
2022/03/03 01:11:48;;;;;;;;;73.00;55.50;;;;;12.33;50.49;101349.06;4940731;28;45495;-70
2022/03/03 01:14:13;;;;;;;;;70.75;56.25;;;;;12.25;50.79;101330.56;4945916;28;46118;-70
2022/03/03 01:16:39;;;;;;;;;69.00;55.00;;;;;12.29;50.43;101342.06;4942856;28;45246;-70
2022/03/03 01:19:05;;;;;;;;;68.75;52.25;;;;;12.24;50.44;101336.81;4941626;28;45429;-70
2022/03/03 01:21:31;;;;;;;;;73.75;57.75;;;;;12.28;50.50;101349.22;4943297;28;45451;-70
2022/03/03 01:23:57;;;;;;;;;73.50;58.00;;;;;12.16;50.24;101328.16;4943336;28;45461;-70
2022/03/03 01:26:23;;;;;;;;;72.00;56.00;;;;;12.20;50.24;101335.19;4943216;28;45358;-70
2022/03/03 01:28:48;;;;;;;;;71.00;55.50;;;;;12.25;50.20;101338.59;4943362;28;45242;-70
2022/03/03 01:31:14;;;;;;;;;67.75;52.75;;;;;12.26;50.26;101342.13;4941419;28;45341;-70
2022/03/03 01:33:39;;;;;;;;;68.75;56.00;;;;;12.17;50.43;101320.06;4942842;28;46285;-70
2022/03/03 01:36:04;;;;;;;;;72.75;56.50;;;;;12.19;50.30;101326.25;4943159;28;45339;-70
2022/03/03 01:38:30;;;;;;;;;68.50;56.00;;;;;12.20;50.34;101332.50;4943343;28;45353;-70
2022/03/03 01:40:55;;;;;;;;;65.75;54.25;;;;;12.18;50.37;101329.88;4943094;28;45476;-70
2022/03/03 01:43:21;;;;;;;;;70.25;55.75;;;;;12.10;50.24;101315.84;4942952;28;47032;-70
2022/03/03 01:45:46;;;;;;;;;73.75;56.25;;;;;12.16;50.21;101322.78;4942350;28;45357;-70
2022/03/03 01:48:11;;;;;;;;;72.25;57.50;;;;;12.11;50.54;101314.94;4943070;28;45490;-70
2022/03/03 01:50:37;;;;;;;;;71.50;56.00;;;;;12.11;50.30;101317.59;4943204;28;45262;-70
2022/03/03 01:53:03;;;;;;;;;75.00;60.50;;;;;12.13;50.72;101323.78;4942727;28;47017;-70
2022/03/03 01:55:29;;;;;;;;;68.00;55.00;;;;;12.15;50.59;101318.38;4942668;28;45326;-70
2022/03/03 01:57:57;;;;;;;;;70.25;56.00;;;;;12.14;50.52;101319.28;4942778;28;45445;-70
2022/03/03 02:00:22;;;;;;;;;75.25;60.25;;;;;12.15;50.49;101311.22;4942580;28;45234;-70
2022/03/03 02:02:47;;;;;;;;;74.50;58.25;;;;;12.12;50.27;101300.59;4942534;28;45162;-70
2022/03/03 02:05:13;;;;;;;;;73.00;56.75;;;;;12.13;50.43;101298.78;4942769;28;45454;-70
2022/03/03 02:07:39;;;;;;;;;71.75;57.50;;;;;12.14;50.59;101309.44;4941659;28;45501;-70
2022/03/03 02:10:05;;;;;;;;;67.75;54.50;;;;;12.15;50.61;101313.03;4930790;28;45333;-70
2022/03/03 02:12:30;;;;;;;;;70.50;56.25;;;;;12.15;50.86;101311.22;4942549;28;46489;-70
2022/03/03 02:14:56;;;;;;;;;69.75;55.00;;;;;12.11;50.78;101306.91;4933591;28;45368;-70
2022/03/03 02:17:22;;;;;;;;;72.50;57.00;;;;;12.05;50.87;101293.69;4936857;28;45425;-70
2022/03/03 02:19:47;;;;;;;;;72.50;56.50;;;;;12.13;50.95;101312.19;4942665;28;45365;-70
2022/03/03 02:22:13;;;;;;;;;70.00;55.25;;;;;12.10;51.45;101304.25;4942576;28;45469;-70
2022/03/03 02:24:39;;;;;;;;;70.75;56.25;;;;;12.12;51.25;101310.44;4942840;28;45322;-70
2022/03/03 02:27:06;;;;;;;;;69.00;54.50;;;;;12.12;51.12;101313.13;4942643;28;45318;-70
2022/03/03 02:29:32;;;;;;;;;70.00;55.50;;;;;12.10;51.37;101305.13;4948120;28;45811;-70
2022/03/03 02:31:59;;;;;;;;;72.25;56.00;;;;;12.14;51.06;101309.44;4942339;28;45454;-70
2022/03/03 02:34:25;;;;;;;;;70.75;56.50;;;;;12.13;51.30;101307.72;4937519;28;45738;-70
2022/03/03 02:36:50;;;;;;;;;71.75;55.75;;;;;12.12;51.62;101305.94;4922570;28;45530;-70
2022/03/03 02:39:15;;;;;;;;;68.00;53.50;;;;;12.14;51.48;101306.78;4939178;28;45548;-70
2022/03/03 02:41:41;;;;;;;;;66.75;54.00;;;;;12.16;51.43;101304.97;4941652;28;46023;-70
2022/03/03 02:44:06;;;;;;;;;69.00;55.75;;;;;12.15;51.77;101297.84;4943356;28;45302;-70
2022/03/03 02:46:32;;;;;;;;;73.00;56.75;;;;;12.14;51.58;101290.72;4943321;28;45443;-70
2022/03/03 02:48:57;;;;;;;;;67.75;53.00;;;;;12.15;51.82;101283.59;4935216;28;45381;-70
2022/03/03 02:51:23;;;;;;;;;66.00;53.50;;;;;12.20;51.35;101295.03;4932406;28;45309;-70
2022/03/03 02:53:48;;;;;;;;;67.00;53.50;;;;;12.16;51.45;101290.69;4956885;28;45723;-70
2022/03/03 02:56:14;;;;;;;;;67.75;54.25;;;;;12.22;51.88;101290.50;4941373;28;45393;-70
2022/03/03 02:58:40;;;;;;;;;68.50;55.00;;;;;12.16;51.65;101282.66;4939776;28;45542;-70
2022/03/03 03:01:06;;;;;;;;;68.00;52.75;;;;;12.21;51.99;101281.59;4934939;28;45207;-70
2022/03/03 03:03:32;;;;;;;;;63.75;52.25;;;;;12.24;51.81;101280.63;4935716;28;45437;-70
2022/03/03 03:05:58;;;;;;;;;64.25;50.50;;;;;12.25;51.75;101270.81;4942021;28;45432;-70
2022/03/03 03:08:23;;;;;;;;;64.50;52.00;;;;;12.27;51.91;101277.84;4942073;28;45362;-70
2022/03/03 03:10:49;;;;;;;;;63.75;52.25;;;;;12.29;51.92;101281.34;4941620;28;45441;-70
2022/03/03 03:13:14;;;;;;;;;68.00;53.25;;;;;12.28;51.82;101268.00;4941748;28;45413;-71
2022/03/03 03:15:43;;;;;;;;;66.75;53.00;;;;;12.33;51.97;101275.00;4940176;28;45638;-70
2022/03/03 03:18:13;;;;;;;;;64.00;50.25;;;;;12.33;52.10;101261.59;4941644;28;45369;-70
2022/03/03 03:20:40;;;;;;;;;66.00;53.00;;;;;12.34;52.15;101260.66;4926364;28;46723;-71
2022/03/03 03:23:06;;;;;;;;;70.25;53.50;;;;;12.30;52.11;101248.31;4933001;28;45937;-70
2022/03/03 03:25:32;;;;;;;;;67.50;52.25;;;;;12.36;52.23;101255.25;4941394;28;46757;-70
2022/03/03 03:27:58;;;;;;;;;68.75;54.50;;;;;12.36;52.28;101250.81;4941698;28;45441;-71
2022/03/03 03:30:23;;;;;;;;;69.25;54.00;;;;;12.38;52.37;101254.31;4941105;28;45864;-70
2022/03/03 03:32:48;;;;;;;;;66.00;52.75;;;;;12.34;52.46;101241.94;4941575;28;45427;-70
2022/03/03 03:35:14;;;;;;;;;63.25;50.75;;;;;12.40;52.63;101256.94;4941451;28;45494;-70
2022/03/03 03:37:39;;;;;;;;;65.25;52.75;;;;;12.39;52.64;101244.47;4941587;28;45654;-70
2022/03/03 03:40:08;;;;;;;;;62.00;51.25;;;;;12.40;52.41;101252.44;4941022;28;46059;-70
2022/03/03 03:42:34;;;;;;;;;68.00;53.25;;;;;12.37;52.47;101241.84;4941463;28;45318;-70
2022/03/03 03:45:00;;;;;;;;;72.50;56.00;;;;;12.38;52.57;101248.09;4940921;28;45515;-70
2022/03/03 03:47:25;;;;;;;;;64.75;53.00;;;;;12.36;52.52;101241.88;4941048;28;45397;-71
2022/03/03 03:49:51;;;;;;;;;68.00;54.00;;;;;12.35;52.49;101235.66;4941507;28;45290;-70
2022/03/03 03:52:16;;;;;;;;;65.25;51.50;;;;;12.37;52.48;101233.81;4941458;28;45367;-70
2022/03/03 03:54:42;;;;;;;;;67.00;53.25;;;;;12.38;52.30;101242.72;4941465;28;45348;-70
2022/03/03 03:57:07;;;;;;;;;72.50;55.50;;;;;12.39;52.54;101239.09;4941399;28;45362;-70
2022/03/03 03:59:33;;;;;;;;;73.50;57.00;;;;;12.37;52.70;101222.22;4940469;28;45431;-70
2022/03/03 04:01:58;;;;;;;;;68.25;55.00;;;;;12.40;52.82;101227.50;4942527;28;45375;-70
2022/03/03 04:04:23;;;;;;;;;62.75;48.75;;;;;12.41;52.85;101227.44;4942317;28;45416;-71
2022/03/03 04:06:49;;;;;;;;;65.25;51.50;;;;;12.40;53.08;101223.00;4940983;28;45465;-71
2022/03/03 04:09:14;;;;;;;;;58.00;48.25;;;;;12.41;53.18;101231.91;4926931;28;45196;-70
2022/03/03 04:11:39;;;;;;;;;58.25;48.00;;;;;12.41;53.58;101223.88;4945097;28;45241;-70
2022/03/03 04:14:05;;;;;;;;;58.75;48.50;;;;;12.43;53.49;101219.34;4944128;28;45421;-71
2022/03/03 04:16:31;;;;;;;;;53.75;43.25;;;;;12.45;53.17;101224.66;4945983;28;45681;-71
2022/03/03 04:18:56;;;;;;;;;57.75;46.00;;;;;12.41;53.62;101211.38;4948547;28;46236;-70
2022/03/03 04:21:22;;;;;;;;;58.00;47.75;;;;;12.46;53.58;101216.56;4934896;28;45356;-70
2022/03/03 04:23:47;;;;;;;;;55.75;43.50;;;;;12.45;53.62;101217.50;4938819;28;45556;-71
2022/03/03 04:26:13;;;;;;;;;56.00;46.50;;;;;12.45;53.77;101205.94;4944187;28;45413;-70
2022/03/03 04:28:39;;;;;;;;;59.25;47.00;;;;;12.46;53.83;101207.66;4944085;28;46182;-71
2022/03/03 04:31:05;;;;;;;;;58.00;47.25;;;;;12.45;54.03;101204.13;4943989;28;45320;-70
2022/03/03 04:33:31;;;;;;;;;59.00;48.25;;;;;12.46;53.92;101197.81;4943693;28;45298;-71
2022/03/03 04:35:57;;;;;;;;;61.00;48.00;;;;;12.36;54.00;101185.66;4943797;28;45413;-70
2022/03/03 04:38:22;;;;;;;;;61.00;47.50;;;;;12.44;53.95;101193.44;4944020;28;46174;-70
2022/03/03 04:40:48;;;;;;;;;60.50;49.25;;;;;12.42;54.14;101191.69;4944043;28;45342;-71
2022/03/03 04:43:13;;;;;;;;;58.25;48.75;;;;;12.46;53.98;101183.56;4943961;28;45378;-70
2022/03/03 04:45:39;;;;;;;;;59.25;48.00;;;;;12.41;53.87;101189.97;4943802;28;45389;-70
2022/03/03 04:48:04;;;;;;;;;53.50;44.00;;;;;12.46;53.94;101187.09;4943762;28;45405;-71
2022/03/03 04:50:30;;;;;;;;;54.25;44.75;;;;;12.40;54.47;101171.25;4935591;28;45220;-71
2022/03/03 04:52:56;;;;;;;;;50.50;42.25;;;;;12.37;54.46;101171.38;4943556;28;45788;-71
2022/03/03 04:55:22;;;;;;;;;53.00;44.00;;;;;12.38;54.51;101174.00;4943651;28;45399;-70
2022/03/03 04:57:48;;;;;;;;;54.25;44.50;;;;;12.44;54.62;101172.91;4943544;28;46256;-71
2022/03/03 05:00:14;;;;;;;;;49.25;42.50;;;;;12.43;55.21;101176.53;4943336;28;45397;-70
2022/03/03 05:02:39;;;;;;;;;49.75;42.50;;;;;12.43;54.99;101173.84;4943766;28;45360;-70
2022/03/03 05:05:05;;;;;;;;;53.75;42.00;;;;;12.41;54.99;101163.19;4941580;28;45922;-70
2022/03/03 05:07:31;;;;;;;;;42.00;36.25;;;;;12.38;55.49;101170.44;4943317;28;46453;-70
2022/03/03 05:09:57;;;;;;;;;39.50;36.75;;;;;12.44;55.41;101178.25;4958402;28;45337;-71
2022/03/03 05:12:22;;;;;;;;;44.00;38.00;;;;;12.42;55.76;101172.09;4942747;28;45306;-70
2022/03/03 05:14:47;;;;;;;;;44.25;38.00;;;;;12.42;55.73;101172.09;4932379;28;45443;-70
2022/03/03 05:17:13;;;;;;;;;48.25;41.00;;;;;12.41;55.79;101175.66;4932968;28;46188;-70
2022/03/03 05:19:38;;;;;;;;;48.00;41.25;;;;;12.43;56.08;101176.53;4923318;28;45389;-70
2022/03/03 05:22:04;;;;;;;;;51.25;41.75;;;;;12.46;56.10;101167.50;4924481;28;45351;-70
2022/03/03 05:24:29;;;;;;;;;47.75;39.00;;;;;12.48;56.23;101171.00;4924393;28;45314;-71
2022/03/03 05:26:54;;;;;;;;;50.00;40.75;;;;;12.47;56.23;101164.78;4922892;28;45174;-70
2022/03/03 05:29:20;;;;;;;;;49.00;40.75;;;;;12.46;56.40;101160.31;4924551;28;45199;-70
2022/03/03 05:31:45;;;;;;;;;54.75;42.50;;;;;12.43;56.46;101168.50;4927574;28;45251;-71
2022/03/03 05:34:11;;;;;;;;;49.00;41.50;;;;;12.41;56.55;101167.63;4940941;28;45305;-70
2022/03/03 05:36:40;;;;;;;;;48.00;38.00;;;;;12.43;56.71;101179.19;4942405;28;45147;-70
2022/03/03 05:39:07;;;;;;;;;51.25;42.25;;;;;12.36;56.75;101162.47;4923788;28;46108;-71
2022/03/03 05:41:33;;;;;;;;;50.25;41.00;;;;;12.39;56.97;101169.50;4935297;28;45896;-70
2022/03/03 05:43:58;;;;;;;;;52.00;41.75;;;;;12.40;56.73;101172.13;4939891;28;45450;-70
2022/03/03 05:46:24;;;;;;;;;52.00;40.25;;;;;12.39;57.19;101173.03;4938976;28;48078;-70
2022/03/03 05:48:50;;;;;;;;;44.00;37.50;;;;;12.43;56.95;101173.84;4943050;28;45311;-70
2022/03/03 05:51:17;;;;;;;;;49.00;39.50;;;;;12.46;57.12;101186.25;4943024;28;45451;-70
2022/03/03 05:53:42;;;;;;;;;47.50;40.00;;;;;12.48;57.16;101176.34;4943165;28;45294;-71
2022/03/03 05:56:09;;;;;;;;;48.00;39.00;;;;;12.51;57.07;101173.56;4942534;28;46087;-70
2022/03/03 05:58:47;;;;;;;;;45.25;37.75;;;;;12.53;56.84;101180.63;4942503;28;45309;-70
2022/03/03 06:01:15;;;;;;;;;48.50;37.50;;;;;12.50;57.17;101172.69;4935650;28;45350;-71
2022/03/03 06:03:41;;;;;;;;;48.00;41.25;;;;;12.56;57.05;101177.88;4942849;28;45317;-70
2022/03/03 06:06:14;;;;;;;;;48.00;40.00;;;;;12.57;57.33;101171.56;4942774;28;45319;-71
2022/03/03 06:08:56;;;;;;;;;45.75;38.25;;;;;12.57;57.22;101168.88;4942590;28;45690;-71
2022/03/03 06:11:26;;;;;;;;;49.75;39.25;;;;;12.59;57.09;101174.19;4941448;28;45519;-71
2022/03/03 06:13:56;;;;;;;;;48.00;39.75;;;;;12.58;57.67;101173.31;4936326;28;45414;-71
2022/03/03 06:16:23;;;;;;;;;46.00;38.00;;;;;12.58;57.12;101172.47;4939367;28;46087;-71
2022/03/03 06:18:50;;;;;;;;;49.25;41.75;;;;;12.52;57.96;101165.50;4938386;28;45703;-70
2022/03/03 06:21:16;;;;;;;;;48.50;39.00;;;;;12.52;57.48;101168.16;4936305;28;45263;-70
2022/03/03 06:23:42;;;;;;;;;47.50;40.00;;;;;12.57;57.49;101171.56;4939624;28;45250;-70
2022/03/03 06:26:11;;;;;;;;;44.25;38.75;;;;;12.57;57.73;101184.09;4937533;28;45213;-70
2022/03/03 06:28:37;;;;;;;;;46.75;39.00;;;;;12.51;57.98;101179.81;4942360;28;45356;-70
2022/03/03 06:31:05;;;;;;;;;43.50;37.25;;;;;12.56;57.85;101183.22;4941470;28;45521;-71
2022/03/03 06:33:30;;;;;;;;;48.75;39.50;;;;;12.52;58.08;101169.97;4942146;28;45231;-70
2022/03/03 06:35:55;;;;;;;;;41.00;35.50;;;;;12.51;57.96;101165.53;4942027;28;45425;-70
2022/03/03 06:38:21;;;;;;;;;44.75;38.75;;;;;12.60;57.91;101184.84;4942288;28;45524;-70
2022/03/03 06:40:46;;;;;;;;;47.75;41.50;;;;;12.55;58.11;101180.59;4942108;28;45303;-71
2022/03/03 06:43:12;;;;;;;;;52.25;42.50;;;;;12.52;58.18;101181.56;4941897;28;45321;-70
2022/03/03 06:45:37;;;;;;;;;45.25;38.50;;;;;12.57;58.14;101192.13;4941622;28;46677;-70
2022/03/03 06:48:04;;;;;;;;;46.25;38.50;;;;;12.55;58.49;101177.91;4942332;28;45314;-70
2022/03/03 06:50:33;;;;;;;;;50.50;39.25;;;;;12.60;58.23;101200.91;4942362;28;45430;-71
2022/03/03 06:53:01;;;;;;;;;50.00;41.75;;;;;12.60;58.13;101195.56;4942256;28;45380;-71
2022/03/03 06:55:27;;;;;;;;;46.25;38.25;;;;;12.61;58.39;101196.44;4943201;28;45559;-71
2022/03/03 06:57:55;;;;;;;;;45.75;38.25;;;;;12.60;58.13;101189.34;4933138;28;45414;-71
2022/03/03 07:00:22;;;;;;;;;48.00;37.50;;;;;12.60;57.83;101198.25;4938843;28;45425;-71
2022/03/03 07:02:48;;;;;;;;;47.25;39.50;;;;;12.64;58.74;101192.78;4940672;28;45389;-71
2022/03/03 07:05:16;;;;;;;;;52.75;39.75;;;;;12.60;58.50;101197.38;4948347;28;45595;-71
2022/03/03 07:07:45;;;;;;;;;51.00;42.00;;;;;12.56;58.51;101193.03;4938045;28;45221;-71
2022/03/03 07:10:12;;;;;;;;;50.50;43.25;;;;;12.50;58.82;101191.44;4941851;28;45385;-71
2022/03/03 07:12:38;;;;;;;;;41.50;36.25;;;;;12.54;58.69;101201.13;4935352;28;45587;-71
2022/03/03 07:15:04;;;;;;;;;48.00;40.00;;;;;12.53;59.12;101194.03;4939983;28;47491;-70
2022/03/03 07:18:01;;;;;;;;;51.00;42.50;;;;;12.56;58.71;101199.28;4937779;28;45231;-71
2022/03/03 07:20:48;;;;;;;;;52.75;44.75;;;;;12.56;59.01;101195.72;4936691;28;45335;-71
2022/03/03 07:23:28;;;;;;;;;49.00;41.50;;;;;12.51;59.11;101195.88;4956540;28;45439;-70
2022/03/03 07:25:58;;;;;;;;;48.25;41.50;;;;;12.54;59.17;101202.94;4940540;28;47045;-69
2022/03/03 07:28:27;;;;;;;;;48.00;40.50;;;;;12.48;59.17;101198.66;4941798;28;45537;-71
2022/03/03 07:30:54;;;;;;;;;47.00;38.50;;;;;12.56;59.18;101199.28;4942101;28;45450;-70
2022/03/03 07:33:40;;;;;;;;;49.50;41.25;;;;;12.54;59.09;101190.41;4941390;28;45560;-70
2022/03/03 07:36:09;;;;;;;;;53.50;42.75;;;;;12.64;59.17;101196.34;4942448;28;45469;-72
2022/03/03 07:38:37;;;;;;;;;50.75;40.50;;;;;12.67;59.06;101188.19;4939804;28;45795;-71
2022/03/03 07:41:03;;;;;;;;;52.50;41.50;;;;;12.67;59.22;101190.00;4941408;28;45512;-71
2022/03/03 07:43:29;;;;;;;;;48.00;40.00;;;;;12.67;58.94;101193.56;4940277;28;45449;-71
2022/03/03 07:45:54;;;;;;;;;53.50;42.50;;;;;12.65;59.01;101194.56;4940702;28;46288;-71
2022/03/03 07:48:24;;;;;;;;;48.75;41.00;;;;;12.68;59.11;101195.31;4937345;28;45428;-71
2022/03/03 07:50:49;;;;;;;;;48.50;40.00;;;;;12.66;59.00;101194.47;4941118;28;45373;-71
2022/03/03 07:53:15;;;;;;;;;46.75;39.50;;;;;12.66;59.23;101190.94;4936299;28;45421;-71
2022/03/03 07:55:53;;;;;;;;;51.25;42.75;;;;;12.69;59.02;101197.06;4936152;28;45334;-71
2022/03/03 07:58:21;;;;;;;;;48.75;39.50;;;;;12.65;59.24;101194.56;4940985;28;45465;-71
2022/03/03 08:00:51;;;;;;;;;54.75;43.00;;;;;12.60;59.31;101183.97;4940677;28;45274;-71
2022/03/03 08:03:20;;;;;;;;;48.25;41.50;;;;;12.59;59.39;101191.13;4940993;28;45557;-71
2022/03/03 08:05:48;;;;;;;;;51.25;40.25;;;;;12.60;59.22;101184.84;4940728;28;46295;-71
2022/03/03 08:08:16;;;;;;;;;50.75;42.50;;;;;12.67;59.28;101190.00;4939833;28;45448;-71
2022/03/03 08:10:44;;;;;;;;;50.25;39.25;;;;;12.57;59.48;101176.06;4941310;28;45387;-71
2022/03/03 08:13:12;;;;;;;;;49.00;40.00;;;;;12.67;59.46;101195.38;4941123;28;45167;-71
2022/03/03 08:15:38;;;;;;;;;47.00;38.75;;;;;12.67;59.64;101195.38;4940855;28;45957;-71
2022/03/03 08:18:04;;;;;;;;;50.75;40.00;;;;;12.64;59.36;101184.75;4940373;28;45419;-71
2022/03/03 08:20:33;;;;;;;;;51.50;42.75;;;;;12.69;59.62;101190.81;4946666;28;45326;-71
2022/03/03 08:23:00;;;;;;;;;49.00;40.00;;;;;12.68;59.49;101186.38;4942832;28;45346;-71
2022/03/03 08:25:26;;;;;;;;;46.50;39.25;;;;;12.65;59.83;101183.84;4940721;28;46021;-71
2022/03/03 08:27:53;;;;;;;;;51.00;41.25;;;;;12.65;59.77;101190.06;4939642;28;45403;-71
2022/03/03 08:30:18;;;;;;;;;54.00;43.00;;;;;12.62;59.76;101186.63;4940367;28;45566;-71
2022/03/03 08:33:06;;;;;;;;;48.75;39.25;;;;;12.67;60.07;101182.84;4940744;28;45426;-71
2022/03/03 08:35:39;;;;;;;;;52.25;41.75;;;;;12.68;59.84;101184.59;4948769;28;45507;-71
2022/03/03 08:38:24;;;;;;;;;45.25;37.00;;;;;12.63;60.13;101167.81;4940516;28;45935;-71
2022/03/03 08:40:51;;;;;;;;;46.00;38.25;;;;;12.62;60.00;101159.84;4927401;28;45437;-71
2022/03/03 08:43:20;;;;;;;;;50.75;41.25;;;;;12.77;59.82;101178.91;4933312;28;45494;-71
2022/03/03 08:45:48;;;;;;;;;54.25;45.00;;;;;12.78;59.71;101180.69;4933661;28;46227;-71
2022/03/03 08:48:15;;;;;;;;;45.50;39.50;;;;;12.78;59.77;101180.69;4940400;28;45471;-71
2022/03/03 08:50:42;;;;;;;;;50.75;42.25;;;;;12.79;60.16;101190.44;4940607;28;45493;-71
2022/03/03 08:53:09;;;;;;;;;50.50;41.75;;;;;12.72;59.94;101178.19;4940492;28;45460;-71
2022/03/03 08:55:36;;;;;;;;;52.25;42.00;;;;;12.79;59.84;101185.09;4940451;28;45510;-71
2022/03/03 08:58:02;;;;;;;;;49.75;41.50;;;;;12.83;60.11;101191.25;4942408;28;45263;-71
2022/03/03 09:00:28;;;;;;;;;51.00;42.25;;;;;12.82;59.79;101185.94;4942069;28;45441;-71
2022/03/03 09:02:54;;;;;;;;;51.75;43.75;;;;;12.88;60.05;101193.75;4943773;28;45243;-71
2022/03/03 09:05:20;;;;;;;;;55.25;44.25;;;;;12.89;60.00;101195.50;4943600;28;45302;-71
2022/03/03 09:07:46;;;;;;;;;51.00;42.25;;;;;12.90;60.07;101203.47;4943702;28;45689;-71
2022/03/03 09:10:13;;;;;;;;;47.00;40.75;;;;;12.90;59.98;101192.78;4940342;28;45324;-71
2022/03/03 09:12:38;;;;;;;;;55.25;43.25;;;;;12.89;59.93;101200.84;4937439;28;45308;-71
2022/03/03 09:15:05;;;;;;;;;55.25;45.25;;;;;12.91;60.01;101193.63;4943037;28;46003;-71
2022/03/03 09:17:31;;;;;;;;;56.25;45.50;;;;;12.95;60.12;101197.97;4932943;28;45417;-68
2022/03/03 09:19:57;;;;;;;;;44.75;38.50;;;;;12.96;60.08;101194.34;4938389;28;45354;-68
2022/03/03 09:22:22;;;;;;;;;51.25;42.00;;;;;12.96;59.77;101191.66;4937935;28;45348;-69
2022/03/03 09:24:48;;;;;;;;;52.00;44.50;;;;;12.98;59.96;101201.41;4939995;28;45341;-69
2022/03/03 09:27:13;;;;;;;;;55.00;44.00;;;;;12.96;59.66;101192.56;4937452;28;45229;-69
2022/03/03 09:29:38;;;;;;;;;48.50;40.00;;;;;12.98;59.92;101205.91;4943145;28;45325;-68
2022/03/03 09:32:05;;;;;;;;;53.00;42.00;;;;;12.98;60.05;101204.09;4943267;28;45265;-69
2022/03/03 09:34:31;;;;;;;;;53.75;42.25;;;;;12.98;60.00;101201.41;4944836;28;46309;-69
2022/03/03 09:36:57;;;;;;;;;56.75;44.75;;;;;12.97;59.78;101199.66;4937765;28;45383;-68
2022/03/03 09:39:23;;;;;;;;;51.00;40.50;;;;;13.03;59.99;101201.25;4928054;28;45570;-69
2022/03/03 09:41:50;;;;;;;;;49.25;40.75;;;;;13.03;60.13;101203.94;4925959;28;45852;-68
2022/03/03 09:44:23;;;;;;;;;47.25;40.25;;;;;13.04;60.01;101188.72;4923693;28;45259;-69
2022/03/03 09:46:49;;;;;;;;;50.00;42.50;;;;;13.02;59.91;101179.88;4923827;28;45254;-69
2022/03/03 09:49:16;;;;;;;;;53.75;42.50;;;;;13.08;60.10;101185.88;4923803;28;45309;-69
2022/03/03 09:51:41;;;;;;;;;52.00;42.25;;;;;13.13;60.19;101180.34;4923738;28;45230;-68
2022/03/03 09:54:07;;;;;;;;;49.00;40.50;;;;;13.16;60.23;101189.16;4932520;28;45365;-69
2022/03/03 09:56:33;;;;;;;;;52.50;42.50;;;;;13.13;60.14;101189.28;4946719;28;45498;-69
2022/03/03 09:59:00;;;;;;;;;51.50;42.50;;;;;13.15;60.02;101191.91;4942966;28;45410;-69
2022/03/03 10:01:27;;;;;;;;;51.25;42.25;;;;;13.20;59.83;101194.41;4942650;28;45359;-69
2022/03/03 10:03:54;;;;;;;;;53.00;43.50;;;;;13.23;60.05;101192.50;4942771;28;45448;-69
2022/03/03 10:06:22;;;;;;;;;48.50;39.25;;;;;13.23;59.74;101192.50;4942887;28;45299;-69
2022/03/03 10:08:50;;;;;;;;;54.75;43.75;;;;;13.22;60.12;101187.19;4941734;28;45548;-69
2022/03/03 10:11:15;;;;;;;;;54.75;42.00;;;;;13.19;59.96;101180.13;4943026;28;45325;-69
2022/03/03 10:13:49;;;;;;;;;52.00;42.75;;;;;13.29;59.76;101197.63;4944175;28;45498;-69
2022/03/03 10:16:23;;;;;;;;;59.50;45.75;;;;;13.32;59.82;101194.88;4941919;28;45416;-69
2022/03/03 10:18:53;;;;;;;;;53.75;44.50;;;;;13.31;59.79;101193.09;4936933;28;45413;-69
2022/03/03 10:21:19;;;;;;;;;55.25;44.00;;;;;13.37;59.64;101193.84;4942310;28;45345;-69
2022/03/03 10:23:44;;;;;;;;;56.25;42.00;;;;;13.39;59.60;101191.97;4942670;28;46030;-69
2022/03/03 10:26:10;;;;;;;;;52.25;42.00;;;;;13.43;59.76;101189.13;4953725;28;46132;-69
2022/03/03 10:28:37;;;;;;;;;51.75;43.00;;;;;13.42;59.56;101186.50;4921606;28;45431;-68
2022/03/03 10:31:10;;;;;;;;;54.00;43.00;;;;;13.45;59.60;101191.75;4931164;28;45551;-68
2022/03/03 10:33:38;;;;;;;;;58.75;46.50;;;;;13.46;59.79;101186.31;4942019;28;46254;-69
2022/03/03 10:36:19;;;;;;;;;50.00;39.75;;;;;13.48;59.83;101189.84;4942008;28;45897;-69
2022/03/03 10:38:44;;;;;;;;;52.25;42.00;;;;;13.51;59.66;101186.13;4932967;28;45254;-69
2022/03/03 10:41:40;;;;;;;;;50.75;41.75;;;;;13.54;59.56;101191.41;4936575;28;45416;-69
2022/03/03 10:44:20;;;;;;;;;50.75;43.50;;;;;13.53;59.70;101184.25;4940898;28;46267;-69
2022/03/03 10:47:11;;;;;;;;;48.75;38.75;;;;;13.56;59.80;101186.84;4942025;28;45761;-68
2022/03/03 10:49:45;;;;;;;;;51.75;42.75;;;;;13.53;59.67;101182.47;4933784;28;45251;-68
2022/03/03 10:52:31;;;;;;;;;47.00;39.00;;;;;13.57;59.76;101180.56;4942025;28;45419;-69
2022/03/03 10:55:12;;;;;;;;;47.00;38.75;;;;;13.60;59.53;101183.13;4941663;28;46226;-69
2022/03/03 10:58:00;;;;;;;;;49.25;41.25;;;;;13.60;59.48;101177.75;4942015;28;45266;-69
2022/03/03 11:00:29;;;;;;;;;50.75;40.50;;;;;13.64;59.45;101181.19;4941631;28;45378;-69
2022/03/03 11:03:00;;;;;;;;;51.25;42.25;;;;;13.66;59.61;101179.31;4941892;28;45442;-69
2022/03/03 11:05:28;;;;;;;;;54.00;43.50;;;;;13.63;59.35;101183.00;4938526;28;47669;-69
2022/03/03 11:07:54;;;;;;;;;50.50;39.75;;;;;13.63;59.26;101182.13;4942002;28;45656;-69
2022/03/03 11:10:21;;;;;;;;;51.00;40.75;;;;;13.66;59.41;101177.50;4941746;28;45339;-68